createdAt,value
2022-08-28T00:01:35.816Z,101714.91
2022-08-28T00:03:39.941Z,101716.69
2022-08-28T00:05:44.643Z,101710.50
2022-08-28T00:07:48.586Z,101711.34
2022-08-28T00:09:52.153Z,101704.31
2022-08-28T00:11:56.360Z,101706.22
2022-08-28T00:14:01.079Z,101705.63
2022-08-28T00:16:05.064Z,101709.22
2022-08-28T00:18:10.228Z,101711.78
2022-08-28T00:20:15.375Z,101714.47
2022-08-28T00:22:18.930Z,101712.53
2022-08-28T00:24:22.613Z,101712.53
2022-08-28T00:26:43.555Z,101719.59
2022-08-28T00:28:47.019Z,101719.59
2022-08-28T00:30:52.546Z,101716.19
2022-08-28T00:32:59.038Z,101714.47
2022-08-28T00:35:04.102Z,101717.13
2022-08-28T00:37:08.328Z,101710.06
2022-08-28T00:39:12.316Z,101713.69
2022-08-28T00:41:16.018Z,101710.06
2022-08-28T00:43:35.079Z,101711.03
2022-08-28T00:45:40.219Z,101708.34
2022-08-28T00:47:43.926Z,101709.34
2022-08-28T00:49:51.014Z,101709.22
2022-08-28T00:52:11.862Z,101711.78
2022-08-28T00:54:16.021Z,101707.28
2022-08-28T00:56:21.195Z,101712.53
2022-08-28T00:58:24.696Z,101708.91
2022-08-28T01:00:31.221Z,101715.97
2022-08-28T01:02:34.832Z,101709.66
2022-08-28T01:04:39.364Z,101712.22
2022-08-28T01:06:43.068Z,101715.97
2022-08-28T01:08:50.422Z,101713.28
2022-08-28T01:10:58.017Z,101706.22
2022-08-28T01:13:02.285Z,101707.19
2022-08-28T01:15:14.074Z,101711.56
2022-08-28T01:17:19.568Z,101709.00
2022-08-28T01:19:31.488Z,101709.13
2022-08-28T01:21:45.723Z,101705.63
2022-08-28T01:23:57.193Z,101705.91
2022-08-28T01:26:01.618Z,101705.19
2022-08-28T01:28:15.652Z,101707.09
2022-08-28T01:30:21.795Z,101712.59
2022-08-28T01:32:32.275Z,101709.09
2022-08-28T01:34:36.331Z,101710.03
2022-08-28T01:36:40.654Z,101707.38
2022-08-28T01:38:46.769Z,101705.56
2022-08-28T01:40:54.772Z,101700.22
2022-08-28T01:43:09.124Z,101704.94
2022-08-28T01:45:15.702Z,101697.22
2022-08-28T01:47:19.264Z,101701.06
2022-08-28T01:49:24.720Z,101702.00
2022-08-28T01:51:28.341Z,101701.28
2022-08-28T01:53:39.453Z,101704.06
2022-08-28T01:55:44.463Z,101707.56
2022-08-28T01:57:52.014Z,101698.81
2022-08-28T01:59:55.965Z,101700.72
2022-08-28T02:01:59.548Z,101699.00
2022-08-28T02:04:04.544Z,101702.72
2022-08-28T02:06:08.557Z,101695.81
2022-08-28T02:08:12.466Z,101696.78
2022-08-28T02:10:16.570Z,101699.66
2022-08-28T02:12:20.823Z,101691.00
2022-08-28T02:14:25.754Z,101699.09
2022-08-28T02:16:29.593Z,101695.66
2022-08-28T02:18:33.248Z,101695.88
2022-08-28T02:20:36.814Z,101694.16
2022-08-28T02:22:40.155Z,101690.75
2022-08-28T02:24:43.464Z,101699.72
2022-08-28T02:26:46.977Z,101698.00
2022-08-28T02:28:50.281Z,101700.66
2022-08-28T02:30:54.986Z,101699.03
2022-08-28T02:32:58.457Z,101698.31
2022-08-28T02:35:02.232Z,101696.59
2022-08-28T02:37:07.923Z,101694.97
2022-08-28T02:39:11.753Z,101695.19
2022-08-28T02:41:15.234Z,101698.81
2022-08-28T02:43:18.469Z,101693.47
2022-08-28T02:45:22.647Z,101697.00
2022-08-28T02:47:27.344Z,101696.25
2022-08-28T02:49:33.051Z,101694.53
2022-08-28T02:51:40.363Z,101695.50
2022-08-28T02:53:44.233Z,101686.63
2022-08-28T02:55:47.457Z,101695.59
2022-08-28T02:57:50.773Z,101695.59
2022-08-28T02:59:54.034Z,101690.34
2022-08-28T03:01:57.327Z,101693.03
2022-08-28T03:04:03.161Z,101690.47
2022-08-28T03:06:08.385Z,101697.50
2022-08-28T03:08:12.048Z,101686.84
2022-08-28T03:10:16.458Z,101695.06
2022-08-28T03:12:24.161Z,101691.41
2022-08-28T03:14:27.914Z,101692.19
2022-08-28T03:16:31.366Z,101691.41
2022-08-28T03:18:34.677Z,101680.84
2022-08-28T03:20:39.465Z,101688.00
2022-08-28T03:23:01.070Z,101680.00
2022-08-28T03:25:05.646Z,101688.94
2022-08-28T03:27:09.140Z,101688.09
2022-08-28T03:29:12.416Z,101682.00
2022-08-28T03:31:19.384Z,101683.84
2022-08-28T03:33:23.160Z,101677.72
2022-08-28T03:35:26.488Z,101681.38
2022-08-28T03:37:31.466Z,101687.75
2022-08-28T03:39:34.765Z,101687.00
2022-08-28T03:41:38.126Z,101686.16
2022-08-28T03:43:41.946Z,101683.59
2022-08-28T03:45:53.427Z,101688.25
2022-08-28T03:47:57.062Z,101688.25
2022-08-28T03:50:01.388Z,101691.22
2022-08-28T03:52:05.046Z,101683.50
2022-08-28T03:54:09.694Z,101686.16
2022-08-28T03:56:15.695Z,101684.56
2022-08-28T03:58:20.603Z,101682.00
2022-08-28T04:00:23.966Z,101678.50
2022-08-28T04:02:27.185Z,101689.16
2022-08-28T04:04:30.479Z,101682.00
2022-08-28T04:06:34.233Z,101691.81
2022-08-28T04:08:40.123Z,101687.31
2022-08-28T04:10:45.571Z,101691.81
2022-08-28T04:12:48.908Z,101687.53
2022-08-28T04:14:52.335Z,101692.03
2022-08-28T04:16:58.613Z,101686.78
2022-08-28T04:19:05.028Z,101689.47
2022-08-28T04:21:10.425Z,101684.88
2022-08-28T04:23:13.638Z,101686.59
2022-08-28T04:25:17.031Z,101685.81
2022-08-28T04:27:21.678Z,101682.41
2022-08-28T04:29:25.193Z,101681.53
2022-08-28T04:31:32.400Z,101686.03
2022-08-28T04:33:36.389Z,101679.91
2022-08-28T04:35:43.068Z,101689.63
2022-08-28T04:37:46.365Z,101691.34
2022-08-28T04:39:49.598Z,101683.25
2022-08-28T04:41:53.086Z,101690.19
2022-08-28T04:43:59.232Z,101690.09
2022-08-28T04:46:07.249Z,101692.66
2022-08-28T04:48:13.648Z,101699.81
2022-08-28T04:50:17.287Z,101683.91
2022-08-28T04:52:20.578Z,101694.38
2022-08-28T04:54:23.837Z,101689.03
2022-08-28T04:56:27.979Z,101688.19
2022-08-28T04:58:33.594Z,101683.72
2022-08-28T05:00:40.736Z,101689.03
2022-08-28T05:02:44.044Z,101696.09
2022-08-28T05:04:47.419Z,101698.56
2022-08-28T05:06:50.778Z,101694.06
2022-08-28T05:08:54.032Z,101692.28
2022-08-28T05:10:58.129Z,101694.00
2022-08-28T05:13:01.656Z,101695.56
2022-08-28T05:15:06.171Z,101695.50
2022-08-28T05:17:14.303Z,101692.75
2022-08-28T05:19:19.283Z,101702.41
2022-08-28T05:21:24.080Z,101693.47
2022-08-28T05:23:27.410Z,101697.84
2022-08-28T05:25:32.866Z,101696.91
2022-08-28T05:27:38.334Z,101704.03
2022-08-28T05:29:41.584Z,101708.41
2022-08-28T05:31:46.383Z,101710.22
2022-08-28T05:33:53.084Z,101707.47
2022-08-28T05:35:56.539Z,101707.47
2022-08-28T05:37:59.766Z,101712.91
2022-08-28T05:40:03.443Z,101713.75
2022-08-28T05:42:06.950Z,101711.84
2022-08-28T05:44:13.037Z,101711.84
2022-08-28T05:46:17.441Z,101724.19
2022-08-28T05:48:20.791Z,101724.09
2022-08-28T05:50:25.411Z,101721.34
2022-08-28T05:52:28.853Z,101730.09
2022-08-28T05:54:32.084Z,101731.81
2022-08-28T05:56:38.703Z,101734.38
2022-08-28T05:58:42.455Z,101725.44
2022-08-28T06:00:46.130Z,101727.88
2022-08-28T06:02:50.344Z,101731.31
2022-08-28T06:04:54.703Z,101737.38
2022-08-28T06:06:59.396Z,101731.00
2022-08-28T06:09:05.990Z,101735.50
2022-08-28T06:11:09.463Z,101732.72
2022-08-28T06:13:12.848Z,101730.78
2022-08-28T06:15:16.432Z,101739.47
2022-08-28T06:17:23.683Z,101736.69
2022-08-28T06:19:29.649Z,101737.44
2022-08-28T06:21:33.597Z,101732.75
2022-08-28T06:23:38.379Z,101737.03
2022-08-28T06:25:45.834Z,101736.94
2022-08-28T06:27:49.149Z,101745.78
2022-08-28T06:29:52.465Z,101743.09
2022-08-28T06:31:58.268Z,101750.06
2022-08-28T06:34:02.114Z,101745.50
2022-08-28T06:36:07.879Z,101747.00
2022-08-28T06:38:12.280Z,101746.78
2022-08-28T06:40:17.408Z,101743.91
2022-08-28T06:42:20.611Z,101740.94
2022-08-28T06:44:24.132Z,101743.28
2022-08-28T06:46:30.491Z,101743.97
2022-08-28T06:48:33.907Z,101751.63
2022-08-28T06:50:41.283Z,101745.25
2022-08-28T06:52:44.567Z,101745.03
2022-08-28T06:54:55.698Z,101747.41
2022-08-28T06:57:00.768Z,101745.47
2022-08-28T06:59:05.207Z,101754.28
2022-08-28T07:01:10.903Z,101760.25
2022-08-28T07:03:17.760Z,101757.28
2022-08-28T07:05:21.439Z,101757.91
2022-08-28T07:07:31.597Z,101754.94
2022-08-28T07:09:35.717Z,101758.16
2022-08-28T07:11:39.658Z,101756.88
2022-08-28T07:13:45.662Z,101753.88
2022-08-28T07:15:49.519Z,101752.59
2022-08-28T07:17:52.929Z,101752.16
2022-08-28T07:19:56.141Z,101764.97
2022-08-28T07:21:59.443Z,101761.22
2022-08-28T07:24:03.552Z,101765.41
2022-08-28T07:26:08.793Z,101759.84
2022-08-28T07:28:12.214Z,101763.25
2022-08-28T07:30:17.127Z,101761.47
2022-08-28T07:32:21.908Z,101763.25
2022-08-28T07:34:26.924Z,101769.47
2022-08-28T07:36:30.678Z,101771.81
2022-08-28T07:38:34.003Z,101769.03
2022-08-28T07:40:37.335Z,101772.84
2022-08-28T07:42:58.375Z,101774.16
2022-08-28T07:45:02.314Z,101776.25
2022-08-28T07:47:08.832Z,101772.41
2022-08-28T07:49:15.681Z,101780.72
2022-08-28T07:51:18.998Z,101779.34
2022-08-28T07:53:22.653Z,101783.53
2022-08-28T07:55:27.943Z,101770.69
2022-08-28T07:57:32.594Z,101773.41
2022-08-28T07:59:36.741Z,101770.16
2022-08-28T08:01:42.384Z,101765.44
2022-08-28T08:03:47.300Z,101769.66
2022-08-28T08:05:56.839Z,101762.94
2022-08-28T08:08:00.329Z,101770.75
2022-08-28T08:10:03.583Z,101773.41
2022-08-28T08:12:07.609Z,101778.88
2022-08-28T08:14:13.909Z,101779.72
2022-08-28T08:16:20.276Z,101781.31
2022-08-28T08:18:24.244Z,101780.97
2022-08-28T08:20:28.983Z,101782.81
2022-08-28T08:22:32.359Z,101789.22
2022-08-28T08:24:35.691Z,101789.00
2022-08-28T08:26:46.964Z,101786.00
2022-08-28T08:29:01.543Z,101787.38
2022-08-28T08:31:07.614Z,101789.28
2022-08-28T08:33:12.873Z,101794.88
2022-08-28T08:35:17.484Z,101791.56
2022-08-28T08:37:22.616Z,101803.13
2022-08-28T08:39:26.416Z,101801.28
2022-08-28T08:41:32.340Z,101799.81
2022-08-28T08:43:50.792Z,101808.50
2022-08-28T08:45:54.700Z,101796.84
2022-08-28T08:47:58.896Z,101802.06
2022-08-28T08:50:04.852Z,101800.88
2022-08-28T08:52:29.277Z,101797.78
2022-08-28T08:54:33.244Z,101799.25
2022-08-28T08:56:37.179Z,101793.03
2022-08-28T08:58:42.944Z,101797.31
2022-08-28T09:00:56.627Z,101789.16
2022-08-28T09:03:06.945Z,101798.06
2022-08-28T09:05:14.684Z,101792.84
2022-08-28T09:07:21.948Z,101796.47
2022-08-28T09:09:32.123Z,101796.88
2022-08-28T09:11:50.351Z,101791.97
2022-08-28T09:14:08.600Z,101797.84
2022-08-28T09:16:22.371Z,101796.16
2022-08-28T09:18:29.671Z,101793.34
2022-08-28T09:20:33.623Z,101798.53
2022-08-28T09:22:37.354Z,101803.69
2022-08-28T09:24:44.319Z,101799.31
2022-08-28T09:26:54.671Z,101800.53
2022-08-28T09:29:03.933Z,101795.16
2022-08-28T09:31:09.890Z,101801.13
2022-08-28T09:33:13.639Z,101800.66
2022-08-28T09:35:28.157Z,101806.88
2022-08-28T09:37:32.892Z,101796.75
2022-08-28T09:39:37.103Z,101802.22
2022-08-28T09:42:09.326Z,101794.06
2022-08-28T09:44:15.241Z,101801.50
2022-08-28T09:46:24.283Z,101794.47
2022-08-28T09:48:36.544Z,101800.53
2022-08-28T09:50:42.617Z,101793.97
2022-08-28T09:52:46.365Z,101794.94
2022-08-28T09:54:51.656Z,101797.38
2022-08-28T09:56:57.270Z,101806.50
2022-08-28T09:59:04.621Z,101806.13
2022-08-28T10:01:22.281Z,101802.72
2022-08-28T10:03:32.206Z,101809.31
2022-08-28T10:05:41.801Z,101818.44
2022-08-28T10:07:54.985Z,101811.75
2022-08-28T10:10:13.532Z,101814.16
2022-08-28T10:12:34.893Z,101812.97
2022-08-28T10:14:59.684Z,101809.31
2022-08-28T10:17:13.624Z,101806.13
2022-08-28T10:19:31.044Z,101817.34
2022-08-28T10:21:40.864Z,101819.28
2022-08-28T10:24:07.367Z,101819.28
2022-08-28T10:26:24.194Z,101815.38
2022-08-28T10:28:44.710Z,101822.44
2022-08-28T10:31:00.134Z,101825.09
2022-08-28T10:33:24.600Z,101827.28
2022-08-28T10:35:39.967Z,101836.28
2022-08-28T10:37:54.094Z,101829.22
2022-08-28T10:40:00.317Z,101827.28
2022-08-28T10:42:06.107Z,101823.03
2022-08-28T10:44:17.639Z,101828.75
2022-08-28T10:46:27.195Z,101839.00
2022-08-28T10:48:36.775Z,101834.59
2022-08-28T10:50:45.335Z,101835.69
2022-08-28T10:52:54.938Z,101836.31
2022-08-28T10:55:04.879Z,101834.25
2022-08-28T10:57:26.093Z,101840.22
2022-08-28T10:59:33.789Z,101840.69
2022-08-28T11:01:47.512Z,101842.03
2022-08-28T11:03:53.285Z,101836.88
2022-08-28T11:06:01.989Z,101843.84
2022-08-28T11:08:10.021Z,101836.28
2022-08-28T11:10:41.260Z,101843.56
2022-08-28T11:12:45.575Z,101837.88
2022-08-28T11:14:52.319Z,101848.00
2022-08-28T11:16:59.307Z,101847.41
2022-08-28T11:19:19.897Z,101845.34
2022-08-28T11:21:27.913Z,101852.88
2022-08-28T11:23:42.294Z,101849.38
2022-08-28T11:25:52.169Z,101861.19
2022-08-28T11:28:18.925Z,101859.00
2022-08-28T11:30:34.384Z,101861.91
2022-08-28T11:32:56.375Z,101850.34
2022-08-28T11:35:02.163Z,101848.75
2022-08-28T11:37:05.934Z,101854.22
2022-08-28T11:39:21.079Z,101854.09
2022-08-28T11:41:27.522Z,101856.03
2022-08-28T11:43:38.229Z,101852.50
2022-08-28T11:46:15.002Z,101852.97
2022-08-28T11:48:48.420Z,101852.38
2022-08-28T11:50:58.787Z,101850.28
2022-08-28T11:53:40.915Z,101846.66
2022-08-28T11:56:31.803Z,101845.81
2022-08-28T11:58:42.609Z,101855.59
2022-08-28T12:00:55.321Z,101850.59
2022-08-28T12:03:11.934Z,101847.72
2022-08-28T12:05:41.374Z,101857.34
2022-08-28T12:07:50.243Z,101860.25
2022-08-28T12:09:54.000Z,101851.59
2022-08-28T12:12:03.539Z,101852.44
2022-08-28T12:14:08.310Z,101855.25
2022-08-28T12:16:12.841Z,101852.94
2022-08-28T12:18:52.750Z,101849.38
2022-08-28T12:21:06.099Z,101848.56
2022-08-28T12:23:35.226Z,101855.97
2022-08-28T12:25:43.257Z,101852.19
2022-08-28T12:27:47.100Z,101859.03
2022-08-28T12:29:52.933Z,101848.31
2022-08-28T12:32:27.063Z,101852.22
2022-08-28T12:34:42.103Z,101854.41
2022-08-28T12:36:51.933Z,101848.09
2022-08-28T12:38:57.698Z,101850.72
2022-08-28T12:41:03.252Z,101847.28
2022-08-28T12:43:09.438Z,101846.81
2022-08-28T12:45:21.682Z,101861.19
2022-08-28T12:47:25.879Z,101855.31
2022-08-28T12:49:34.667Z,101855.00
2022-08-28T12:51:39.692Z,101858.38
2022-08-28T12:53:46.560Z,101853.41
2022-08-28T12:55:50.237Z,101852.66
2022-08-28T12:57:54.342Z,101847.22
2022-08-28T13:00:10.716Z,101851.69
2022-08-28T13:02:24.377Z,101846.06
2022-08-28T13:04:34.509Z,101849.06
2022-08-28T13:06:40.277Z,101854.16
2022-08-28T13:08:49.818Z,101854.09
2022-08-28T13:10:54.019Z,101859.53
2022-08-28T13:13:05.237Z,101858.22
2022-08-28T13:15:11.619Z,101861.19
2022-08-28T13:17:17.731Z,101861.91
2022-08-28T13:19:27.805Z,101858.72
2022-08-28T13:21:37.534Z,101851.75
2022-08-28T13:23:41.759Z,101855.75
2022-08-28T13:25:46.996Z,101856.25
2022-08-28T13:27:58.667Z,101856.50
2022-08-28T13:30:08.994Z,101851.13
2022-08-28T13:32:18.807Z,101846.50
2022-08-28T13:34:26.092Z,101857.97
2022-08-28T13:36:29.868Z,101856.25
2022-08-28T13:38:35.626Z,101852.81
2022-08-28T13:40:58.695Z,101850.25
2022-08-28T13:43:07.809Z,101850.91
2022-08-28T13:45:15.191Z,101855.38
2022-08-28T13:47:18.838Z,101851.84
2022-08-28T13:49:22.841Z,101857.22
2022-08-28T13:51:27.810Z,101852.59
2022-08-28T13:53:31.400Z,101852.34
2022-08-28T13:55:36.112Z,101843.00
2022-08-28T13:57:41.159Z,101837.66
2022-08-28T13:59:45.211Z,101829.41
2022-08-28T14:02:06.523Z,101827.75
2022-08-28T14:04:10.200Z,101838.97
2022-08-28T14:06:17.006Z,101845.94
2022-08-28T14:08:20.654Z,101841.91
2022-08-28T14:10:24.406Z,101836.16
2022-08-28T14:12:33.285Z,101846.25
2022-08-28T14:14:40.307Z,101847.41
2022-08-28T14:16:45.826Z,101847.72
2022-08-28T14:18:49.481Z,101847.00
2022-08-28T14:20:53.289Z,101846.88
2022-08-28T14:22:56.929Z,101842.16
2022-08-28T14:25:00.544Z,101848.00
2022-08-28T14:27:04.246Z,101843.72
2022-08-28T14:29:10.782Z,101834.47
2022-08-28T14:31:15.727Z,101844.59
2022-08-28T14:33:20.551Z,101843.41
2022-08-28T14:35:24.563Z,101831.13
2022-08-28T14:37:28.616Z,101829.16
2022-08-28T14:39:32.547Z,101830.75
2022-08-28T14:41:37.032Z,101831.84
2022-08-28T14:43:40.488Z,101842.81
2022-08-28T14:45:46.186Z,101841.22
2022-08-28T14:47:51.207Z,101832.72
2022-08-28T14:49:55.090Z,101830.03
2022-08-28T14:51:58.823Z,101835.03
2022-08-28T14:54:03.582Z,101832.59
2022-08-28T14:56:08.975Z,101828.22
2022-08-28T14:58:12.952Z,101825.41
2022-08-28T15:00:17.598Z,101825.88
2022-08-28T15:02:21.485Z,101825.75
2022-08-28T15:04:27.587Z,101826.38
2022-08-28T15:06:31.932Z,101826.38
2022-08-28T15:08:35.848Z,101825.41
2022-08-28T15:10:40.362Z,101830.03
2022-08-28T15:12:43.924Z,101827.84
2022-08-28T15:14:55.151Z,101836.22
2022-08-28T15:17:00.934Z,101846.50
2022-08-28T15:19:04.903Z,101835.91
2022-08-28T15:21:17.003Z,101831.38
2022-08-28T15:23:20.625Z,101836.97
2022-08-28T15:25:24.195Z,101828.81
2022-08-28T15:27:27.891Z,101834.91
2022-08-28T15:29:31.714Z,101832.22
2022-08-28T15:31:37.375Z,101825.38
2022-08-28T15:33:45.064Z,101830.75
2022-08-28T15:35:49.265Z,101830.50
2022-08-28T15:37:54.696Z,101830.00
2022-08-28T15:40:15.559Z,101825.13
2022-08-28T15:42:19.055Z,101820.63
2022-08-28T15:44:22.716Z,101819.41
2022-08-28T15:46:26.316Z,101819.28
2022-08-28T15:48:29.939Z,101829.13
2022-08-28T15:50:33.634Z,101824.38
2022-08-28T15:52:37.219Z,101823.16
2022-08-28T15:54:42.140Z,101825.72
2022-08-28T15:56:45.715Z,101829.03
2022-08-28T15:58:52.226Z,101833.38
2022-08-28T16:00:55.829Z,101831.69
2022-08-28T16:03:01.233Z,101831.78
2022-08-28T16:05:05.119Z,101834.00
2022-08-28T16:07:08.822Z,101836.63
2022-08-28T16:09:12.941Z,101839.53
2022-08-28T16:11:19.847Z,101835.28
2022-08-28T16:13:24.353Z,101824.78
2022-08-28T16:15:28.042Z,101831.22
2022-08-28T16:17:31.784Z,101836.44
2022-08-28T16:19:35.584Z,101838.72
2022-08-28T16:21:39.552Z,101840.41
2022-08-28T16:23:44.014Z,101834.53
2022-08-28T16:25:48.036Z,101837.19
2022-08-28T16:27:53.268Z,101834.84
2022-08-28T16:29:57.630Z,101840.13
2022-08-28T16:32:01.400Z,101836.69
2022-08-28T16:34:05.460Z,101833.03
2022-08-28T16:36:11.648Z,101832.59
2022-08-28T16:38:15.427Z,101831.84
2022-08-28T16:40:19.519Z,101823.72
2022-08-28T16:42:23.492Z,101825.22
2022-08-28T16:44:28.486Z,101834.69
2022-08-28T16:46:32.403Z,101828.63
2022-08-28T16:48:36.071Z,101832.25
2022-08-28T16:50:39.908Z,101839.47
2022-08-28T16:52:43.516Z,101830.56
2022-08-28T16:54:48.786Z,101837.50
2022-08-28T16:56:52.452Z,101835.22
2022-08-28T16:58:57.421Z,101831.56
2022-08-28T17:01:02.560Z,101832.53
2022-08-28T17:03:06.822Z,101835.22
2022-08-28T17:05:11.630Z,101826.22
2022-08-28T17:07:15.722Z,101829.34
2022-08-28T17:09:20.770Z,101834.09
2022-08-28T17:11:25.790Z,101830.03
2022-08-28T17:13:29.626Z,101830.16
2022-08-28T17:15:33.710Z,101835.63
2022-08-28T17:17:38.650Z,101832.22
2022-08-28T17:19:42.645Z,101832.22
2022-08-28T17:22:03.593Z,101830.28
2022-08-28T17:24:08.051Z,101835.38
2022-08-28T17:26:12.449Z,101830.03
2022-08-28T17:28:16.479Z,101828.47
2022-08-28T17:30:20.955Z,101828.47
2022-08-28T17:32:24.549Z,101824.41
2022-08-28T17:34:30.517Z,101825.53
2022-08-28T17:36:34.617Z,101824.88
2022-08-28T17:38:38.570Z,101825.84
2022-08-28T17:40:42.567Z,101828.63
2022-08-28T17:42:48.248Z,101825.13
2022-08-28T17:44:51.777Z,101828.53
2022-08-28T17:46:55.437Z,101824.88
2022-08-28T17:48:59.232Z,101825.41
2022-08-28T17:51:04.718Z,101827.59
2022-08-28T17:53:08.991Z,101827.59
2022-08-28T17:55:12.893Z,101835.63
2022-08-28T17:57:17.414Z,101831.25
2022-08-28T17:59:21.684Z,101839.50
2022-08-28T18:01:27.643Z,101835.34
2022-08-28T18:03:31.441Z,101828.00
2022-08-28T18:05:42.463Z,101832.09
2022-08-28T18:07:47.601Z,101831.72
2022-08-28T18:09:51.448Z,101830.97
2022-08-28T18:11:55.810Z,101834.72
2022-08-28T18:13:59.943Z,101827.66
2022-08-28T18:16:03.594Z,101836.03
2022-08-28T18:18:07.884Z,101831.75
2022-08-28T18:20:13.587Z,101831.88
2022-08-28T18:22:17.348Z,101831.88
2022-08-28T18:24:22.309Z,101839.03
2022-08-28T18:26:28.680Z,101841.00
2022-08-28T18:28:32.506Z,101833.91
2022-08-28T18:30:37.335Z,101833.69
2022-08-28T18:32:40.844Z,101837.31
2022-08-28T18:34:44.785Z,101833.28
2022-08-28T18:36:49.034Z,101839.69
2022-08-28T18:38:54.080Z,101842.50
2022-08-28T18:40:59.882Z,101841.66
2022-08-28T18:43:04.318Z,101844.09
2022-08-28T18:45:09.457Z,101839.28
2022-08-28T18:47:13.742Z,101843.53
2022-08-28T18:49:17.390Z,101840.22
2022-08-28T18:51:22.363Z,101846.16
2022-08-28T18:53:26.559Z,101847.44
2022-08-28T18:55:32.475Z,101849.47
2022-08-28T18:57:37.458Z,101852.28
2022-08-28T18:59:41.410Z,101855.91
2022-08-28T19:01:45.207Z,101860.28
2022-08-28T19:03:49.060Z,101846.16
2022-08-28T19:05:53.050Z,101858.59
2022-08-28T19:07:56.986Z,101851.50
2022-08-28T19:10:02.490Z,101853.22
2022-08-28T19:12:07.425Z,101851.50
2022-08-28T19:14:12.630Z,101859.75
2022-08-28T19:16:18.808Z,101858.28
2022-08-28T19:18:22.495Z,101858.50
2022-08-28T19:20:28.164Z,101858.50
2022-08-28T19:22:31.868Z,101868.31
2022-08-28T19:24:35.499Z,101871.06
2022-08-28T19:26:39.300Z,101871.91
2022-08-28T19:28:43.864Z,101873.75
2022-08-28T19:30:49.669Z,101868.63
2022-08-28T19:32:53.770Z,101869.81
2022-08-28T19:34:58.752Z,101888.75
2022-08-28T19:37:03.282Z,101881.69
2022-08-28T19:39:09.156Z,101887.03
2022-08-28T19:41:14.406Z,101883.47
2022-08-28T19:43:18.936Z,101887.03
2022-08-28T19:45:23.413Z,101893.22
2022-08-28T19:47:29.542Z,101887.75
2022-08-28T19:49:39.887Z,101887.75
2022-08-28T19:51:44.131Z,101888.63
2022-08-28T19:53:54.623Z,101885.97
2022-08-28T19:56:01.848Z,101892.16
2022-08-28T19:58:06.806Z,101889.59
2022-08-28T20:00:15.082Z,101895.78
2022-08-28T20:02:19.692Z,101893.09
2022-08-28T20:04:26.230Z,101883.47
2022-08-28T20:06:33.870Z,101887.03
2022-08-28T20:08:38.484Z,101890.44
2022-08-28T20:10:46.590Z,101894.09
2022-08-28T20:12:50.963Z,101884.47
2022-08-28T20:14:54.865Z,101886.38
2022-08-28T20:17:00.802Z,101892.69
2022-08-28T20:19:05.309Z,101891.72
2022-08-28T20:21:13.197Z,101888.09
2022-08-28T20:23:18.253Z,101891.59
2022-08-28T20:25:22.633Z,101885.53
2022-08-28T20:27:26.880Z,101895.34
2022-08-28T20:29:31.104Z,101897.19
2022-08-28T20:31:35.921Z,101890.88
2022-08-28T20:33:40.738Z,101896.00
2022-08-28T20:35:45.067Z,101882.53
2022-08-28T20:37:50.991Z,101890.53
2022-08-28T20:39:58.966Z,101897.06
2022-08-28T20:42:03.330Z,101892.78
2022-08-28T20:44:08.182Z,101894.72
2022-08-28T20:46:13.455Z,101891.41
2022-08-28T20:48:17.769Z,101896.75
2022-08-28T20:50:22.550Z,101900.28
2022-08-28T20:52:27.265Z,101897.63
2022-08-28T20:54:34.495Z,101894.72
2022-08-28T20:56:39.083Z,101905.31
2022-08-28T20:58:43.320Z,101898.91
2022-08-28T21:00:47.329Z,101902.31
2022-08-28T21:02:51.147Z,101908.41
2022-08-28T21:04:56.713Z,101906.69
2022-08-28T21:07:00.680Z,101912.88
2022-08-28T21:09:04.541Z,101908.41
2022-08-28T21:11:10.111Z,101906.69
2022-08-28T21:13:15.071Z,101907.66
2022-08-28T21:15:18.788Z,101906.03
2022-08-28T21:17:29.868Z,101905.41
2022-08-28T21:19:39.744Z,101915.16
2022-08-28T21:21:44.828Z,101910.00
2022-08-28T21:23:49.000Z,101911.94
2022-08-28T21:25:52.597Z,101911.84
2022-08-28T21:27:57.725Z,101909.28
2022-08-28T21:30:07.135Z,101917.41
2022-08-28T21:32:10.972Z,101918.25
2022-08-28T21:34:14.767Z,101911.19
2022-08-28T21:36:20.317Z,101918.25
2022-08-28T21:38:24.203Z,101910.09
2022-08-28T21:40:27.940Z,101910.97
2022-08-28T21:42:31.517Z,101917.91
2022-08-28T21:44:36.707Z,101914.16
2022-08-28T21:46:41.201Z,101915.88
2022-08-28T21:48:48.566Z,101914.94
2022-08-28T21:50:52.037Z,101918.56
2022-08-28T21:52:57.549Z,101915.78
2022-08-28T21:55:02.794Z,101913.75
2022-08-28T21:57:06.360Z,101912.03
2022-08-28T21:59:09.957Z,101909.25
2022-08-28T22:01:16.370Z,101911.81
2022-08-28T22:03:20.365Z,101917.06
2022-08-28T22:05:24.134Z,101913.53
2022-08-28T22:07:27.754Z,101914.31
2022-08-28T22:09:31.464Z,101914.31
2022-08-28T22:11:35.806Z,101924.00
2022-08-28T22:13:39.708Z,101919.53
2022-08-28T22:15:45.300Z,101925.00
2022-08-28T22:17:50.491Z,101918.78
2022-08-28T22:19:54.214Z,101919.66
2022-08-28T22:22:14.877Z,101923.28
2022-08-28T22:24:18.526Z,101920.59
2022-08-28T22:26:22.517Z,101921.56
2022-08-28T22:28:25.989Z,101924.34
2022-08-28T22:30:29.648Z,101924.44
2022-08-28T22:32:33.580Z,101921.00
2022-08-28T22:34:41.458Z,101920.28
2022-08-28T22:36:45.027Z,101924.66
2022-08-28T22:38:53.409Z,101927.44
2022-08-28T22:40:58.183Z,101927.53
2022-08-28T22:43:01.885Z,101930.31
2022-08-28T22:45:06.280Z,101924.13
2022-08-28T22:47:10.044Z,101921.69
2022-08-28T22:49:13.711Z,101912.91
2022-08-28T22:51:20.670Z,101914.63
2022-08-28T22:53:24.288Z,101918.25
2022-08-28T22:55:28.006Z,101922.75
2022-08-28T22:57:31.508Z,101918.47
2022-08-28T22:59:35.394Z,101923.81
2022-08-28T23:01:39.271Z,101916.75
2022-08-28T23:03:43.440Z,101916.75
2022-08-28T23:05:47.050Z,101919.41
2022-08-28T23:07:52.051Z,101917.69
2022-08-28T23:09:55.787Z,101915.91
2022-08-28T23:12:00.138Z,101906.06
2022-08-28T23:14:03.977Z,101915.03
2022-08-28T23:16:07.912Z,101912.34
2022-08-28T23:18:12.168Z,101915.03
2022-08-28T23:20:20.326Z,101911.41
2022-08-28T23:22:25.155Z,101911.50
2022-08-28T23:24:31.559Z,101906.28
2022-08-28T23:26:35.112Z,101906.28
2022-08-28T23:28:38.685Z,101908.94
2022-08-28T23:30:48.169Z,101900.06
2022-08-28T23:32:52.490Z,101907.13
2022-08-28T23:34:56.111Z,101906.28
2022-08-28T23:36:59.537Z,101901.88
2022-08-28T23:39:04.738Z,101900.06
2022-08-28T23:41:10.308Z,101900.16
2022-08-28T23:43:14.079Z,101900.16
2022-08-28T23:45:19.076Z,101902.84
2022-08-28T23:47:22.622Z,101904.66
2022-08-28T23:49:27.035Z,101896.00
2022-08-28T23:51:31.316Z,101901.34
2022-08-28T23:53:35.561Z,101891.53
2022-08-28T23:55:39.095Z,101896.09
2022-08-28T23:57:45.832Z,101894.28
2022-08-28T23:59:49.527Z,101897.94
